sensor_id;sensor_type;location;lat;lon;timestamp;P1;durP1;ratioP1;P2;durP2;ratioP2
86077;SDS011;76680;59.304;18.294;2024-02-23T00:01:03;24.73;;;11.50;;
86077;SDS011;76680;59.304;18.294;2024-02-23T00:03:28;17.10;;;7.30;;
86077;SDS011;76680;59.304;18.294;2024-02-23T00:05:53;33.63;;;12.57;;
86077;SDS011;76680;59.304;18.294;2024-02-23T00:08:19;28.20;;;11.50;;
86077;SDS011;76680;59.304;18.294;2024-02-23T00:10:44;28.13;;;13.23;;
86077;SDS011;76680;59.304;18.294;2024-02-23T00:13:09;24.73;;;14.50;;
86077;SDS011;76680;59.304;18.294;2024-02-23T00:15:35;17.97;;;8.23;;
86077;SDS011;76680;59.304;18.294;2024-02-23T00:18:00;32.20;;;13.50;;
86077;SDS011;76680;59.304;18.294;2024-02-23T00:20:28;38.20;;;16.87;;
86077;SDS011;76680;59.304;18.294;2024-02-23T00:22:53;25.70;;;13.00;;
86077;SDS011;76680;59.304;18.294;2024-02-23T00:25:19;28.67;;;12.07;;
86077;SDS011;76680;59.304;18.294;2024-02-23T00:27:44;28.40;;;12.73;;
86077;SDS011;76680;59.304;18.294;2024-02-23T00:30:09;32.13;;;11.80;;
86077;SDS011;76680;59.304;18.294;2024-02-23T00:32:35;33.27;;;13.70;;
86077;SDS011;76680;59.304;18.294;2024-02-23T00:35:00;30.10;;;13.30;;
86077;SDS011;76680;59.304;18.294;2024-02-23T00:37:26;19.87;;;6.07;;
86077;SDS011;76680;59.304;18.294;2024-02-23T00:39:51;43.00;;;16.60;;
86077;SDS011;76680;59.304;18.294;2024-02-23T00:42:16;35.90;;;16.03;;
86077;SDS011;76680;59.304;18.294;2024-02-23T00:44:42;19.40;;;11.67;;
86077;SDS011;76680;59.304;18.294;2024-02-23T00:47:07;34.63;;;14.37;;
86077;SDS011;76680;59.304;18.294;2024-02-23T00:49:32;27.70;;;12.83;;
86077;SDS011;76680;59.304;18.294;2024-02-23T00:51:58;54.93;;;15.37;;
86077;SDS011;76680;59.304;18.294;2024-02-23T00:54:23;43.60;;;18.37;;
86077;SDS011;76680;59.304;18.294;2024-02-23T00:56:48;37.63;;;13.47;;
86077;SDS011;76680;59.304;18.294;2024-02-23T00:59:14;32.10;;;16.00;;
86077;SDS011;76680;59.304;18.294;2024-02-23T01:01:39;26.93;;;14.10;;
86077;SDS011;76680;59.304;18.294;2024-02-23T01:04:04;40.70;;;14.90;;
86077;SDS011;76680;59.304;18.294;2024-02-23T01:06:30;55.47;;;19.63;;
86077;SDS011;76680;59.304;18.294;2024-02-23T01:08:55;43.30;;;17.67;;
86077;SDS011;76680;59.304;18.294;2024-02-23T01:11:20;52.30;;;16.87;;
86077;SDS011;76680;59.304;18.294;2024-02-23T01:13:46;48.63;;;18.37;;
86077;SDS011;76680;59.304;18.294;2024-02-23T01:16:11;68.27;;;23.37;;
86077;SDS011;76680;59.304;18.294;2024-02-23T01:18:36;38.60;;;12.07;;
86077;SDS011;76680;59.304;18.294;2024-02-23T01:21:02;42.53;;;19.20;;
86077;SDS011;76680;59.304;18.294;2024-02-23T01:23:27;51.73;;;19.50;;
86077;SDS011;76680;59.304;18.294;2024-02-23T01:25:52;46.17;;;19.37;;
86077;SDS011;76680;59.304;18.294;2024-02-23T01:28:18;47.83;;;20.53;;
86077;SDS011;76680;59.304;18.294;2024-02-23T01:30:43;41.13;;;17.30;;
86077;SDS011;76680;59.304;18.294;2024-02-23T01:33:08;46.60;;;21.27;;
86077;SDS011;76680;59.304;18.294;2024-02-23T01:35:34;58.67;;;20.37;;
86077;SDS011;76680;59.304;18.294;2024-02-23T01:38:02;49.97;;;18.07;;
86077;SDS011;76680;59.304;18.294;2024-02-23T01:40:27;53.90;;;22.00;;
86077;SDS011;76680;59.304;18.294;2024-02-23T01:43:03;42.10;;;18.53;;
86077;SDS011;76680;59.304;18.294;2024-02-23T01:45:29;43.77;;;19.30;;
86077;SDS011;76680;59.304;18.294;2024-02-23T01:47:55;50.10;;;20.73;;
86077;SDS011;76680;59.304;18.294;2024-02-23T01:50:20;54.90;;;21.43;;
86077;SDS011;76680;59.304;18.294;2024-02-23T01:52:46;72.43;;;20.90;;
86077;SDS011;76680;59.304;18.294;2024-02-23T01:55:11;41.70;;;20.00;;
86077;SDS011;76680;59.304;18.294;2024-02-23T01:57:36;35.13;;;17.47;;
86077;SDS011;76680;59.304;18.294;2024-02-23T02:00:02;16.27;;;8.27;;
86077;SDS011;76680;59.304;18.294;2024-02-23T02:02:28;54.17;;;22.77;;
86077;SDS011;76680;59.304;18.294;2024-02-23T02:04:53;64.63;;;24.67;;
86077;SDS011;76680;59.304;18.294;2024-02-23T02:07:18;62.70;;;22.63;;
86077;SDS011;76680;59.304;18.294;2024-02-23T02:09:45;60.63;;;20.80;;
86077;SDS011;76680;59.304;18.294;2024-02-23T02:12:10;44.30;;;19.20;;
86077;SDS011;76680;59.304;18.294;2024-02-23T02:14:36;55.90;;;25.60;;
86077;SDS011;76680;59.304;18.294;2024-02-23T02:17:01;49.73;;;20.57;;
86077;SDS011;76680;59.304;18.294;2024-02-23T02:19:26;42.60;;;19.03;;
86077;SDS011;76680;59.304;18.294;2024-02-23T02:21:52;41.40;;;18.80;;
86077;SDS011;76680;59.304;18.294;2024-02-23T02:24:17;59.13;;;21.60;;
86077;SDS011;76680;59.304;18.294;2024-02-23T02:26:42;59.37;;;22.63;;
86077;SDS011;76680;59.304;18.294;2024-02-23T02:29:10;77.53;;;23.90;;
86077;SDS011;76680;59.304;18.294;2024-02-23T02:31:36;59.30;;;25.80;;
86077;SDS011;76680;59.304;18.294;2024-02-23T02:34:02;57.13;;;23.23;;
86077;SDS011;76680;59.304;18.294;2024-02-23T02:36:28;35.50;;;16.57;;
86077;SDS011;76680;59.304;18.294;2024-02-23T02:38:53;42.40;;;21.23;;
86077;SDS011;76680;59.304;18.294;2024-02-23T02:41:18;48.30;;;22.33;;
86077;SDS011;76680;59.304;18.294;2024-02-23T02:43:44;43.70;;;20.70;;
86077;SDS011;76680;59.304;18.294;2024-02-23T02:46:09;39.63;;;17.43;;
86077;SDS011;76680;59.304;18.294;2024-02-23T02:48:34;50.13;;;19.03;;
86077;SDS011;76680;59.304;18.294;2024-02-23T02:51:00;29.73;;;13.97;;
86077;SDS011;76680;59.304;18.294;2024-02-23T02:53:25;56.97;;;21.40;;
86077;SDS011;76680;59.304;18.294;2024-02-23T02:55:50;50.23;;;21.50;;
86077;SDS011;76680;59.304;18.294;2024-02-23T02:58:16;47.43;;;19.57;;
86077;SDS011;76680;59.304;18.294;2024-02-23T03:00:42;44.20;;;21.30;;
86077;SDS011;76680;59.304;18.294;2024-02-23T03:03:07;62.40;;;26.97;;
86077;SDS011;76680;59.304;18.294;2024-02-23T03:05:32;24.13;;;10.07;;
86077;SDS011;76680;59.304;18.294;2024-02-23T03:07:58;44.13;;;17.73;;
86077;SDS011;76680;59.304;18.294;2024-02-23T03:10:23;59.67;;;22.33;;
86077;SDS011;76680;59.304;18.294;2024-02-23T03:12:48;44.57;;;21.43;;
86077;SDS011;76680;59.304;18.294;2024-02-23T03:15:14;33.20;;;13.90;;
86077;SDS011;76680;59.304;18.294;2024-02-23T03:17:40;58.53;;;22.27;;
86077;SDS011;76680;59.304;18.294;2024-02-23T03:20:05;59.17;;;22.97;;
86077;SDS011;76680;59.304;18.294;2024-02-23T03:22:34;44.23;;;21.70;;
86077;SDS011;76680;59.304;18.294;2024-02-23T03:24:59;37.90;;;19.00;;
86077;SDS011;76680;59.304;18.294;2024-02-23T03:27:27;52.60;;;21.80;;
86077;SDS011;76680;59.304;18.294;2024-02-23T03:29:53;48.47;;;20.37;;
86077;SDS011;76680;59.304;18.294;2024-02-23T03:32:18;39.60;;;18.67;;
86077;SDS011;76680;59.304;18.294;2024-02-23T03:34:44;45.90;;;20.10;;
86077;SDS011;76680;59.304;18.294;2024-02-23T03:37:10;59.13;;;21.17;;
86077;SDS011;76680;59.304;18.294;2024-02-23T03:39:35;46.67;;;20.00;;
86077;SDS011;76680;59.304;18.294;2024-02-23T03:42:02;38.77;;;18.07;;
86077;SDS011;76680;59.304;18.294;2024-02-23T03:44:27;48.93;;;19.60;;
86077;SDS011;76680;59.304;18.294;2024-02-23T03:46:52;39.33;;;20.93;;
86077;SDS011;76680;59.304;18.294;2024-02-23T03:49:18;62.50;;;25.00;;
86077;SDS011;76680;59.304;18.294;2024-02-23T03:51:43;61.40;;;24.63;;
86077;SDS011;76680;59.304;18.294;2024-02-23T03:54:09;51.00;;;20.70;;
86077;SDS011;76680;59.304;18.294;2024-02-23T03:56:37;35.83;;;15.53;;
86077;SDS011;76680;59.304;18.294;2024-02-23T03:59:03;53.50;;;20.07;;
86077;SDS011;76680;59.304;18.294;2024-02-23T04:01:28;89.73;;;26.30;;
86077;SDS011;76680;59.304;18.294;2024-02-23T04:03:53;61.03;;;24.30;;
86077;SDS011;76680;59.304;18.294;2024-02-23T04:06:19;56.73;;;21.17;;
86077;SDS011;76680;59.304;18.294;2024-02-23T04:08:44;63.47;;;24.47;;
86077;SDS011;76680;59.304;18.294;2024-02-23T04:11:12;81.83;;;28.07;;
86077;SDS011;76680;59.304;18.294;2024-02-23T04:13:37;59.67;;;19.87;;
86077;SDS011;76680;59.304;18.294;2024-02-23T04:16:02;35.43;;;18.63;;
86077;SDS011;76680;59.304;18.294;2024-02-23T04:18:28;71.53;;;25.73;;
86077;SDS011;76680;59.304;18.294;2024-02-23T04:20:53;55.80;;;19.60;;
86077;SDS011;76680;59.304;18.294;2024-02-23T04:23:18;82.90;;;25.23;;
86077;SDS011;76680;59.304;18.294;2024-02-23T04:25:44;60.40;;;23.87;;
86077;SDS011;76680;59.304;18.294;2024-02-23T04:28:09;47.40;;;18.37;;
86077;SDS011;76680;59.304;18.294;2024-02-23T04:30:34;45.43;;;21.57;;
86077;SDS011;76680;59.304;18.294;2024-02-23T04:33:00;73.93;;;24.03;;
86077;SDS011;76680;59.304;18.294;2024-02-23T04:35:25;115.93;;;29.17;;
86077;SDS011;76680;59.304;18.294;2024-02-23T04:37:51;40.27;;;17.90;;
86077;SDS011;76680;59.304;18.294;2024-02-23T04:40:16;47.93;;;19.97;;
86077;SDS011;76680;59.304;18.294;2024-02-23T04:42:43;57.57;;;21.07;;
86077;SDS011;76680;59.304;18.294;2024-02-23T04:45:08;38.10;;;18.43;;
86077;SDS011;76680;59.304;18.294;2024-02-23T04:47:34;43.73;;;17.83;;
86077;SDS011;76680;59.304;18.294;2024-02-23T04:49:59;45.27;;;18.60;;
86077;SDS011;76680;59.304;18.294;2024-02-23T04:52:25;26.23;;;12.47;;
86077;SDS011;76680;59.304;18.294;2024-02-23T04:54:50;41.77;;;14.27;;
86077;SDS011;76680;59.304;18.294;2024-02-23T04:57:16;23.60;;;13.67;;
86077;SDS011;76680;59.304;18.294;2024-02-23T04:59:41;16.80;;;9.70;;
86077;SDS011;76680;59.304;18.294;2024-02-23T05:02:07;25.50;;;13.43;;
86077;SDS011;76680;59.304;18.294;2024-02-23T05:04:33;27.63;;;12.47;;
86077;SDS011;76680;59.304;18.294;2024-02-23T05:06:58;21.13;;;10.20;;
86077;SDS011;76680;59.304;18.294;2024-02-23T05:09:23;26.10;;;13.57;;
86077;SDS011;76680;59.304;18.294;2024-02-23T05:11:49;21.97;;;12.30;;
86077;SDS011;76680;59.304;18.294;2024-02-23T05:14:14;22.30;;;13.10;;
86077;SDS011;76680;59.304;18.294;2024-02-23T05:16:39;29.80;;;13.97;;
86077;SDS011;76680;59.304;18.294;2024-02-23T05:19:05;16.23;;;7.63;;
86077;SDS011;76680;59.304;18.294;2024-02-23T05:21:30;5.37;;;4.67;;
86077;SDS011;76680;59.304;18.294;2024-02-23T05:23:56;30.00;;;9.93;;
86077;SDS011;76680;59.304;18.294;2024-02-23T05:26:21;26.27;;;9.07;;
86077;SDS011;76680;59.304;18.294;2024-02-23T05:28:47;37.37;;;14.37;;
86077;SDS011;76680;59.304;18.294;2024-02-23T05:31:12;31.47;;;11.40;;
86077;SDS011;76680;59.304;18.294;2024-02-23T05:33:37;28.53;;;9.20;;
86077;SDS011;76680;59.304;18.294;2024-02-23T05:36:04;8.67;;;5.73;;
86077;SDS011;76680;59.304;18.294;2024-02-23T05:38:29;36.57;;;12.47;;
86077;SDS011;76680;59.304;18.294;2024-02-23T05:40:56;49.90;;;13.33;;
86077;SDS011;76680;59.304;18.294;2024-02-23T05:43:21;9.13;;;4.77;;
86077;SDS011;76680;59.304;18.294;2024-02-23T05:45:46;31.20;;;12.03;;
86077;SDS011;76680;59.304;18.294;2024-02-23T05:48:12;18.10;;;9.40;;
86077;SDS011;76680;59.304;18.294;2024-02-23T05:50:37;34.93;;;9.60;;
86077;SDS011;76680;59.304;18.294;2024-02-23T05:53:02;14.40;;;6.40;;
86077;SDS011;76680;59.304;18.294;2024-02-23T05:55:29;29.03;;;10.70;;
86077;SDS011;76680;59.304;18.294;2024-02-23T05:57:54;25.03;;;11.27;;
86077;SDS011;76680;59.304;18.294;2024-02-23T06:00:20;48.93;;;13.70;;
86077;SDS011;76680;59.304;18.294;2024-02-23T06:02:46;16.03;;;6.80;;
86077;SDS011;76680;59.304;18.294;2024-02-23T06:05:12;31.97;;;14.40;;
86077;SDS011;76680;59.304;18.294;2024-02-23T06:07:37;10.00;;;5.50;;
86077;SDS011;76680;59.304;18.294;2024-02-23T06:10:03;11.63;;;6.30;;
86077;SDS011;76680;59.304;18.294;2024-02-23T06:12:29;39.70;;;15.03;;
86077;SDS011;76680;59.304;18.294;2024-02-23T06:14:54;41.90;;;16.30;;
86077;SDS011;76680;59.304;18.294;2024-02-23T06:17:21;37.47;;;16.17;;
86077;SDS011;76680;59.304;18.294;2024-02-23T06:19:48;28.00;;;13.17;;
86077;SDS011;76680;59.304;18.294;2024-02-23T06:22:13;68.60;;;20.50;;
86077;SDS011;76680;59.304;18.294;2024-02-23T06:24:40;26.77;;;7.57;;
86077;SDS011;76680;59.304;18.294;2024-02-23T06:27:05;35.80;;;15.27;;
86077;SDS011;76680;59.304;18.294;2024-02-23T06:29:30;56.30;;;19.37;;
86077;SDS011;76680;59.304;18.294;2024-02-23T06:31:55;43.33;;;17.87;;
86077;SDS011;76680;59.304;18.294;2024-02-23T06:34:21;37.07;;;16.27;;
86077;SDS011;76680;59.304;18.294;2024-02-23T06:36:46;65.63;;;22.17;;
86077;SDS011;76680;59.304;18.294;2024-02-23T06:39:12;37.97;;;17.47;;
86077;SDS011;76680;59.304;18.294;2024-02-23T06:41:38;37.43;;;19.53;;
86077;SDS011;76680;59.304;18.294;2024-02-23T06:44:04;54.23;;;23.53;;
86077;SDS011;76680;59.304;18.294;2024-02-23T06:46:29;56.43;;;19.70;;
86077;SDS011;76680;59.304;18.294;2024-02-23T06:48:54;57.23;;;23.90;;
86077;SDS011;76680;59.304;18.294;2024-02-23T06:51:20;53.00;;;20.60;;
86077;SDS011;76680;59.304;18.294;2024-02-23T06:53:46;70.33;;;23.47;;
86077;SDS011;76680;59.304;18.294;2024-02-23T06:56:12;48.67;;;21.87;;
86077;SDS011;76680;59.304;18.294;2024-02-23T06:58:37;63.50;;;24.70;;
86077;SDS011;76680;59.304;18.294;2024-02-23T07:01:04;11.20;;;5.50;;
86077;SDS011;76680;59.304;18.294;2024-02-23T07:03:30;53.90;;;21.70;;
86077;SDS011;76680;59.304;18.294;2024-02-23T07:05:56;87.03;;;29.60;;
86077;SDS011;76680;59.304;18.294;2024-02-23T07:08:22;47.10;;;13.87;;
86077;SDS011;76680;59.304;18.294;2024-02-23T07:10:47;45.40;;;20.57;;
86077;SDS011;76680;59.304;18.294;2024-02-23T07:13:12;52.87;;;23.37;;
86077;SDS011;76680;59.304;18.294;2024-02-23T07:15:37;48.60;;;22.00;;
86077;SDS011;76680;59.304;18.294;2024-02-23T07:18:03;46.13;;;19.73;;
86077;SDS011;76680;59.304;18.294;2024-02-23T07:20:29;9.33;;;5.20;;
86077;SDS011;76680;59.304;18.294;2024-02-23T07:22:54;46.17;;;20.27;;
86077;SDS011;76680;59.304;18.294;2024-02-23T07:25:20;47.03;;;17.77;;
86077;SDS011;76680;59.304;18.294;2024-02-23T07:27:48;39.40;;;17.80;;
86077;SDS011;76680;59.304;18.294;2024-02-23T07:30:16;39.17;;;20.87;;
86077;SDS011;76680;59.304;18.294;2024-02-23T07:32:42;10.33;;;6.20;;
86077;SDS011;76680;59.304;18.294;2024-02-23T07:35:08;15.77;;;8.77;;
86077;SDS011;76680;59.304;18.294;2024-02-23T07:37:33;20.90;;;11.00;;
86077;SDS011;76680;59.304;18.294;2024-02-23T07:39:59;35.47;;;15.00;;
86077;SDS011;76680;59.304;18.294;2024-02-23T07:42:24;22.07;;;13.10;;
86077;SDS011;76680;59.304;18.294;2024-02-23T07:44:49;30.00;;;14.90;;
86077;SDS011;76680;59.304;18.294;2024-02-23T07:47:14;23.30;;;13.57;;
86077;SDS011;76680;59.304;18.294;2024-02-23T07:49:40;31.70;;;13.60;;
86077;SDS011;76680;59.304;18.294;2024-02-23T07:52:08;19.30;;;11.80;;
86077;SDS011;76680;59.304;18.294;2024-02-23T07:54:33;28.70;;;14.33;;
86077;SDS011;76680;59.304;18.294;2024-02-23T07:56:59;37.40;;;19.57;;
86077;SDS011;76680;59.304;18.294;2024-02-23T07:59:24;34.37;;;14.10;;
86077;SDS011;76680;59.304;18.294;2024-02-23T08:01:49;11.10;;;6.30;;
86077;SDS011;76680;59.304;18.294;2024-02-23T08:04:15;18.53;;;12.37;;
86077;SDS011;76680;59.304;18.294;2024-02-23T08:06:41;24.67;;;11.77;;
86077;SDS011;76680;59.304;18.294;2024-02-23T08:09:07;35.80;;;12.20;;
86077;SDS011;76680;59.304;18.294;2024-02-23T08:11:34;19.57;;;9.97;;
86077;SDS011;76680;59.304;18.294;2024-02-23T08:13:59;29.57;;;12.20;;
86077;SDS011;76680;59.304;18.294;2024-02-23T08:16:25;31.90;;;12.90;;
86077;SDS011;76680;59.304;18.294;2024-02-23T08:18:50;39.87;;;19.53;;
86077;SDS011;76680;59.304;18.294;2024-02-23T08:21:16;35.30;;;15.00;;
86077;SDS011;76680;59.304;18.294;2024-02-23T08:23:41;6.50;;;3.23;;
86077;SDS011;76680;59.304;18.294;2024-02-23T08:26:06;36.87;;;18.10;;
86077;SDS011;76680;59.304;18.294;2024-02-23T08:28:32;16.50;;;8.50;;
86077;SDS011;76680;59.304;18.294;2024-02-23T08:30:57;13.60;;;7.50;;
86077;SDS011;76680;59.304;18.294;2024-02-23T08:33:22;16.97;;;9.10;;
86077;SDS011;76680;59.304;18.294;2024-02-23T08:35:48;26.20;;;13.00;;
86077;SDS011;76680;59.304;18.294;2024-02-23T08:38:13;22.20;;;11.10;;
86077;SDS011;76680;59.304;18.294;2024-02-23T08:40:38;19.67;;;10.73;;
86077;SDS011;76680;59.304;18.294;2024-02-23T08:43:04;10.93;;;6.53;;
86077;SDS011;76680;59.304;18.294;2024-02-23T08:45:30;16.87;;;7.80;;
86077;SDS011;76680;59.304;18.294;2024-02-23T08:47:55;19.50;;;10.53;;
86077;SDS011;76680;59.304;18.294;2024-02-23T08:50:20;15.93;;;10.17;;
86077;SDS011;76680;59.304;18.294;2024-02-23T08:52:45;15.37;;;8.47;;
86077;SDS011;76680;59.304;18.294;2024-02-23T08:55:11;22.20;;;10.20;;
86077;SDS011;76680;59.304;18.294;2024-02-23T08:57:37;18.70;;;11.07;;
86077;SDS011;76680;59.304;18.294;2024-02-23T09:00:02;15.10;;;9.00;;
86077;SDS011;76680;59.304;18.294;2024-02-23T09:02:29;8.20;;;4.60;;
86077;SDS011;76680;59.304;18.294;2024-02-23T09:04:55;21.43;;;10.00;;
86077;SDS011;76680;59.304;18.294;2024-02-23T09:07:20;15.73;;;6.77;;
86077;SDS011;76680;59.304;18.294;2024-02-23T09:09:46;18.77;;;7.93;;
86077;SDS011;76680;59.304;18.294;2024-02-23T09:12:11;22.07;;;10.00;;
86077;SDS011;76680;59.304;18.294;2024-02-23T09:14:37;17.50;;;7.83;;
86077;SDS011;76680;59.304;18.294;2024-02-23T09:17:04;16.60;;;9.27;;
86077;SDS011;76680;59.304;18.294;2024-02-23T09:19:29;18.23;;;11.37;;
86077;SDS011;76680;59.304;18.294;2024-02-23T09:21:55;26.13;;;10.43;;
86077;SDS011;76680;59.304;18.294;2024-02-23T09:24:21;32.20;;;11.70;;
86077;SDS011;76680;59.304;18.294;2024-02-23T09:26:47;23.53;;;12.47;;
86077;SDS011;76680;59.304;18.294;2024-02-23T09:29:12;24.47;;;10.07;;
86077;SDS011;76680;59.304;18.294;2024-02-23T09:31:38;13.57;;;6.97;;
86077;SDS011;76680;59.304;18.294;2024-02-23T09:34:03;16.40;;;7.93;;
86077;SDS011;76680;59.304;18.294;2024-02-23T09:36:28;19.97;;;9.83;;
86077;SDS011;76680;59.304;18.294;2024-02-23T09:38:55;18.60;;;8.80;;
86077;SDS011;76680;59.304;18.294;2024-02-23T09:41:21;19.87;;;10.60;;
86077;SDS011;76680;59.304;18.294;2024-02-23T09:43:47;20.43;;;8.53;;
86077;SDS011;76680;59.304;18.294;2024-02-23T09:46:14;21.10;;;9.37;;
86077;SDS011;76680;59.304;18.294;2024-02-23T09:48:40;16.10;;;9.20;;
86077;SDS011;76680;59.304;18.294;2024-02-23T09:51:05;23.80;;;10.70;;
86077;SDS011;76680;59.304;18.294;2024-02-23T09:53:31;12.30;;;5.97;;
86077;SDS011;76680;59.304;18.294;2024-02-23T09:55:59;15.67;;;7.90;;
86077;SDS011;76680;59.304;18.294;2024-02-23T09:58:25;6.87;;;5.10;;
86077;SDS011;76680;59.304;18.294;2024-02-23T10:00:51;20.30;;;9.77;;
86077;SDS011;76680;59.304;18.294;2024-02-23T10:03:17;23.87;;;9.80;;
86077;SDS011;76680;59.304;18.294;2024-02-23T10:05:43;25.43;;;8.50;;
86077;SDS011;76680;59.304;18.294;2024-02-23T10:08:09;26.77;;;8.00;;
86077;SDS011;76680;59.304;18.294;2024-02-23T10:10:34;8.50;;;5.13;;
86077;SDS011;76680;59.304;18.294;2024-02-23T10:13:00;12.77;;;7.30;;
86077;SDS011;76680;59.304;18.294;2024-02-23T10:15:26;18.30;;;6.20;;
86077;SDS011;76680;59.304;18.294;2024-02-23T10:17:53;16.67;;;7.63;;
86077;SDS011;76680;59.304;18.294;2024-02-23T10:20:19;19.20;;;7.83;;
86077;SDS011;76680;59.304;18.294;2024-02-23T10:22:44;19.80;;;8.70;;
86077;SDS011;76680;59.304;18.294;2024-02-23T10:25:10;17.43;;;7.80;;
86077;SDS011;76680;59.304;18.294;2024-02-23T10:27:35;11.97;;;6.93;;
86077;SDS011;76680;59.304;18.294;2024-02-23T10:30:01;15.20;;;6.80;;
86077;SDS011;76680;59.304;18.294;2024-02-23T10:32:26;19.47;;;6.37;;
86077;SDS011;76680;59.304;18.294;2024-02-23T10:34:54;13.23;;;6.37;;
86077;SDS011;76680;59.304;18.294;2024-02-23T10:37:21;12.23;;;6.00;;
86077;SDS011;76680;59.304;18.294;2024-02-23T10:39:47;8.80;;;5.93;;
86077;SDS011;76680;59.304;18.294;2024-02-23T10:42:14;9.60;;;5.13;;
86077;SDS011;76680;59.304;18.294;2024-02-23T10:44:42;9.30;;;5.50;;
86077;SDS011;76680;59.304;18.294;2024-02-23T10:47:07;12.60;;;4.93;;
86077;SDS011;76680;59.304;18.294;2024-02-23T10:49:33;7.93;;;4.97;;
86077;SDS011;76680;59.304;18.294;2024-02-23T10:51:58;15.13;;;5.07;;
86077;SDS011;76680;59.304;18.294;2024-02-23T10:54:24;11.03;;;4.60;;
86077;SDS011;76680;59.304;18.294;2024-02-23T10:56:50;12.03;;;4.43;;
86077;SDS011;76680;59.304;18.294;2024-02-23T10:59:16;12.57;;;4.53;;
86077;SDS011;76680;59.304;18.294;2024-02-23T11:01:52;9.57;;;2.67;;
86077;SDS011;76680;59.304;18.294;2024-02-23T11:04:19;10.00;;;3.63;;
86077;SDS011;76680;59.304;18.294;2024-02-23T11:06:51;6.70;;;2.83;;
86077;SDS011;76680;59.304;18.294;2024-02-23T11:09:20;4.27;;;2.03;;
86077;SDS011;76680;59.304;18.294;2024-02-23T11:11:55;14.20;;;3.70;;
86077;SDS011;76680;59.304;18.294;2024-02-23T11:14:34;5.60;;;2.33;;
86077;SDS011;76680;59.304;18.294;2024-02-23T11:17:00;6.00;;;3.03;;
86077;SDS011;76680;59.304;18.294;2024-02-23T11:19:36;6.20;;;2.07;;
86077;SDS011;76680;59.304;18.294;2024-02-23T11:22:02;7.00;;;2.67;;
86077;SDS011;76680;59.304;18.294;2024-02-23T11:24:31;1.97;;;1.77;;
86077;SDS011;76680;59.304;18.294;2024-02-23T11:26:57;8.20;;;2.10;;
86077;SDS011;76680;59.304;18.294;2024-02-23T11:29:22;6.70;;;2.07;;
86077;SDS011;76680;59.304;18.294;2024-02-23T11:31:51;4.27;;;1.97;;
86077;SDS011;76680;59.304;18.294;2024-02-23T11:34:21;5.53;;;1.63;;
86077;SDS011;76680;59.304;18.294;2024-02-23T11:36:46;5.90;;;2.40;;
86077;SDS011;76680;59.304;18.294;2024-02-23T11:39:15;3.53;;;1.30;;
86077;SDS011;76680;59.304;18.294;2024-02-23T11:41:41;4.13;;;1.40;;
86077;SDS011;76680;59.304;18.294;2024-02-23T11:44:07;5.37;;;2.03;;
86077;SDS011;76680;59.304;18.294;2024-02-23T11:46:32;5.50;;;1.77;;
86077;SDS011;76680;59.304;18.294;2024-02-23T11:48:57;5.07;;;1.50;;
86077;SDS011;76680;59.304;18.294;2024-02-23T11:51:24;4.20;;;1.60;;
86077;SDS011;76680;59.304;18.294;2024-02-23T11:53:51;4.20;;;1.33;;
86077;SDS011;76680;59.304;18.294;2024-02-23T11:56:18;1.37;;;1.00;;
86077;SDS011;76680;59.304;18.294;2024-02-23T11:58:43;2.03;;;1.27;;
86077;SDS011;76680;59.304;18.294;2024-02-23T12:01:09;2.37;;;1.30;;
86077;SDS011;76680;59.304;18.294;2024-02-23T12:03:34;3.10;;;1.20;;
86077;SDS011;76680;59.304;18.294;2024-02-23T12:06:00;2.50;;;1.20;;
86077;SDS011;76680;59.304;18.294;2024-02-23T12:08:26;7.73;;;1.67;;
86077;SDS011;76680;59.304;18.294;2024-02-23T12:10:53;5.10;;;1.30;;
86077;SDS011;76680;59.304;18.294;2024-02-23T12:13:19;6.30;;;1.53;;
86077;SDS011;76680;59.304;18.294;2024-02-23T12:15:44;4.80;;;2.57;;
86077;SDS011;76680;59.304;18.294;2024-02-23T12:18:13;5.03;;;1.23;;
86077;SDS011;76680;59.304;18.294;2024-02-23T12:20:39;3.50;;;1.20;;
86077;SDS011;76680;59.304;18.294;2024-02-23T12:23:04;9.13;;;1.30;;
86077;SDS011;76680;59.304;18.294;2024-02-23T12:25:30;4.97;;;1.10;;
86077;SDS011;76680;59.304;18.294;2024-02-23T12:27:55;6.80;;;1.00;;
86077;SDS011;76680;59.304;18.294;2024-02-23T12:30:22;5.90;;;1.30;;
86077;SDS011;76680;59.304;18.294;2024-02-23T12:32:47;2.60;;;1.00;;
86077;SDS011;76680;59.304;18.294;2024-02-23T12:35:12;4.73;;;1.30;;
86077;SDS011;76680;59.304;18.294;2024-02-23T12:37:38;5.47;;;1.70;;
86077;SDS011;76680;59.304;18.294;2024-02-23T12:40:04;3.27;;;1.47;;
86077;SDS011;76680;59.304;18.294;2024-02-23T12:42:30;6.23;;;1.20;;
86077;SDS011;76680;59.304;18.294;2024-02-23T12:44:55;4.90;;;1.07;;
86077;SDS011;76680;59.304;18.294;2024-02-23T12:47:20;1.50;;;1.00;;
86077;SDS011;76680;59.304;18.294;2024-02-23T12:49:46;3.73;;;1.20;;
86077;SDS011;76680;59.304;18.294;2024-02-23T12:52:11;5.80;;;0.90;;
86077;SDS011;76680;59.304;18.294;2024-02-23T12:54:37;3.00;;;0.90;;
86077;SDS011;76680;59.304;18.294;2024-02-23T12:57:02;9.00;;;1.20;;
86077;SDS011;76680;59.304;18.294;2024-02-23T12:59:28;8.77;;;1.93;;
86077;SDS011;76680;59.304;18.294;2024-02-23T13:01:53;2.60;;;0.97;;
86077;SDS011;76680;59.304;18.294;2024-02-23T13:04:18;5.00;;;1.27;;
86077;SDS011;76680;59.304;18.294;2024-02-23T13:06:44;5.27;;;1.57;;
86077;SDS011;76680;59.304;18.294;2024-02-23T13:09:09;7.93;;;1.60;;
86077;SDS011;76680;59.304;18.294;2024-02-23T13:11:36;5.97;;;1.70;;
86077;SDS011;76680;59.304;18.294;2024-02-23T13:14:02;9.87;;;1.73;;
86077;SDS011;76680;59.304;18.294;2024-02-23T13:16:28;4.90;;;1.50;;
86077;SDS011;76680;59.304;18.294;2024-02-23T13:18:53;4.33;;;1.13;;
86077;SDS011;76680;59.304;18.294;2024-02-23T13:21:19;5.40;;;1.30;;
86077;SDS011;76680;59.304;18.294;2024-02-23T13:23:44;12.53;;;1.60;;
86077;SDS011;76680;59.304;18.294;2024-02-23T13:26:09;12.23;;;1.50;;
86077;SDS011;76680;59.304;18.294;2024-02-23T13:28:38;4.97;;;1.83;;
86077;SDS011;76680;59.304;18.294;2024-02-23T13:31:03;10.70;;;1.20;;
86077;SDS011;76680;59.304;18.294;2024-02-23T13:33:29;4.23;;;1.20;;
86077;SDS011;76680;59.304;18.294;2024-02-23T13:35:54;10.43;;;2.40;;
86077;SDS011;76680;59.304;18.294;2024-02-23T13:38:20;4.30;;;1.10;;
86077;SDS011;76680;59.304;18.294;2024-02-23T13:40:45;4.00;;;0.90;;
86077;SDS011;76680;59.304;18.294;2024-02-23T13:43:11;11.93;;;1.97;;
86077;SDS011;76680;59.304;18.294;2024-02-23T13:45:47;6.63;;;1.57;;
86077;SDS011;76680;59.304;18.294;2024-02-23T13:48:13;9.03;;;1.30;;
86077;SDS011;76680;59.304;18.294;2024-02-23T13:50:39;7.60;;;1.23;;
86077;SDS011;76680;59.304;18.294;2024-02-23T13:53:04;4.57;;;0.90;;
86077;SDS011;76680;59.304;18.294;2024-02-23T13:55:29;7.13;;;1.90;;
86077;SDS011;76680;59.304;18.294;2024-02-23T13:57:54;3.40;;;0.80;;
86077;SDS011;76680;59.304;18.294;2024-02-23T14:00:20;1.87;;;0.97;;
86077;SDS011;76680;59.304;18.294;2024-02-23T14:02:46;3.70;;;1.10;;
86077;SDS011;76680;59.304;18.294;2024-02-23T14:05:11;4.50;;;1.07;;
86077;SDS011;76680;59.304;18.294;2024-02-23T14:07:36;12.27;;;1.67;;